createdAt,value
2019-06-27T00:01:00.000Z,26.4
2019-06-27T00:06:00.000Z,26.4
2019-06-27T00:11:00.000Z,26.4
2019-06-27T00:16:00.000Z,26.3
2019-06-27T00:21:00.000Z,26.3
2019-06-27T00:26:00.000Z,26.3
2019-06-27T00:31:00.000Z,26.3
2019-06-27T00:36:00.000Z,26.3
2019-06-27T00:41:00.000Z,26.3
2019-06-27T00:47:00.000Z,26.2
2019-06-27T00:52:00.000Z,26.2
2019-06-27T00:57:00.000Z,26.2
2019-06-27T01:02:00.000Z,26.1
2019-06-27T01:07:00.000Z,26.1
2019-06-27T01:12:00.000Z,26.1
2019-06-27T01:17:00.000Z,26.1
2019-06-27T01:22:00.000Z,26.1
2019-06-27T01:27:00.000Z,26.1
2019-06-27T01:32:00.000Z,26.1
2019-06-27T01:37:00.000Z,26.1
2019-06-27T01:42:00.000Z,26.1
2019-06-27T01:47:00.000Z,26.1
2019-06-27T01:52:00.000Z,26.2
2019-06-27T01:57:00.000Z,26.3
2019-06-27T02:02:00.000Z,26.4
2019-06-27T02:07:00.000Z,26.5
2019-06-27T02:12:00.000Z,26.6
2019-06-27T02:17:00.000Z,26.7
2019-06-27T02:22:00.000Z,26.8
2019-06-27T02:27:00.000Z,26.8
2019-06-27T02:33:00.000Z,26.9
2019-06-27T02:38:00.000Z,27.0
2019-06-27T02:43:00.000Z,27.0
2019-06-27T02:48:00.000Z,27.1
2019-06-27T02:53:00.000Z,27.1
2019-06-27T02:58:00.000Z,27.2
2019-06-27T03:03:00.000Z,27.2
2019-06-27T03:08:00.000Z,27.3
2019-06-27T03:13:00.000Z,27.3
2019-06-27T03:18:00.000Z,27.3
2019-06-27T03:23:00.000Z,27.2
2019-06-27T03:28:00.000Z,27.1
2019-06-27T03:33:00.000Z,27.1
2019-06-27T03:38:00.000Z,27.1
2019-06-27T03:43:00.000Z,27.0
2019-06-27T03:48:00.000Z,27.0
2019-06-27T03:53:00.000Z,27.0
2019-06-27T03:58:00.000Z,27.0
2019-06-27T04:04:00.000Z,27.0
2019-06-27T04:09:00.000Z,27.0
2019-06-27T04:14:00.000Z,27.0
2019-06-27T04:19:00.000Z,27.1
2019-06-27T04:24:00.000Z,27.1
2019-06-27T04:29:00.000Z,27.1
2019-06-27T04:34:00.000Z,27.2
2019-06-27T04:39:00.000Z,27.3
2019-06-27T04:44:00.000Z,27.3
2019-06-27T04:49:00.000Z,27.4
2019-06-27T04:54:00.000Z,27.4
2019-06-27T04:59:00.000Z,27.5
2019-06-27T05:04:00.000Z,27.6
2019-06-27T05:09:00.000Z,27.7
2019-06-27T05:14:00.000Z,27.8
2019-06-27T05:19:00.000Z,27.8
2019-06-27T05:24:00.000Z,27.9
2019-06-27T05:29:00.000Z,28.0
2019-06-27T05:35:00.000Z,28.0
2019-06-27T05:40:00.000Z,28.1
2019-06-27T05:45:00.000Z,28.2
2019-06-27T05:50:00.000Z,28.3
2019-06-27T05:55:00.000Z,28.3
2019-06-27T06:00:00.000Z,28.4
2019-06-27T06:05:00.000Z,28.5
2019-06-27T06:10:00.000Z,28.6
2019-06-27T06:15:00.000Z,28.8
2019-06-27T06:20:00.000Z,28.9
2019-06-27T06:25:00.000Z,29.1
2019-06-27T06:30:00.000Z,29.1
2019-06-27T06:35:00.000Z,29.2
2019-06-27T06:40:00.000Z,29.3
2019-06-27T06:45:00.000Z,29.5
2019-06-27T06:50:00.000Z,30.0
2019-06-27T06:55:00.000Z,30.2
2019-06-27T07:00:00.000Z,30.5
2019-06-27T07:06:00.000Z,30.8
2019-06-27T07:11:00.000Z,31.1
2019-06-27T07:16:00.000Z,31.4
2019-06-27T07:21:00.000Z,31.8
2019-06-27T07:26:00.000Z,32.1
2019-06-27T07:31:00.000Z,32.4
2019-06-27T07:36:00.000Z,32.3
2019-06-27T07:41:00.000Z,32.4
2019-06-27T07:46:00.000Z,32.8
2019-06-27T07:51:00.000Z,33.1
2019-06-27T07:56:00.000Z,33.4
2019-06-27T08:01:00.000Z,33.4
2019-06-27T08:06:00.000Z,33.4
2019-06-27T08:11:00.000Z,33.3
2019-06-27T08:16:00.000Z,33.2
2019-06-27T08:21:00.000Z,33.2
2019-06-27T08:26:00.000Z,33.4
2019-06-27T08:31:00.000Z,33.8
2019-06-27T08:36:00.000Z,33.8
2019-06-27T08:41:00.000Z,33.9
2019-06-27T08:46:00.000Z,34.1
2019-06-27T08:51:00.000Z,34.1
2019-06-27T08:56:00.000Z,34.1
2019-06-27T09:01:00.000Z,34.2
2019-06-27T09:07:00.000Z,34.7
2019-06-27T09:12:00.000Z,34.9
2019-06-27T09:17:00.000Z,35.2
2019-06-27T09:22:00.000Z,35.7
2019-06-27T09:27:00.000Z,36.2
2019-06-27T09:32:00.000Z,36.3
2019-06-27T09:37:00.000Z,36.1
2019-06-27T09:42:00.000Z,36.2
2019-06-27T09:47:00.000Z,36.5
2019-06-27T09:52:00.000Z,36.5
2019-06-27T09:57:00.000Z,36.7
2019-06-27T10:02:00.000Z,36.8
2019-06-27T10:07:00.000Z,36.8
2019-06-27T10:12:00.000Z,36.8
2019-06-27T10:17:00.000Z,36.7
2019-06-27T10:22:00.000Z,36.0
2019-06-27T10:27:00.000Z,35.8
2019-06-27T10:32:00.000Z,35.9
2019-06-27T10:38:00.000Z,36.1
2019-06-27T10:43:00.000Z,35.9
2019-06-27T10:48:00.000Z,35.9
2019-06-27T10:53:00.000Z,35.9
2019-06-27T10:58:00.000Z,35.8
2019-06-27T11:03:00.000Z,35.8
2019-06-27T11:08:00.000Z,35.8
2019-06-27T11:13:00.000Z,35.6
2019-06-27T11:18:00.000Z,35.5
2019-06-27T11:23:00.000Z,35.6
2019-06-27T11:28:00.000Z,35.6
2019-06-27T11:33:00.000Z,35.5
2019-06-27T11:38:00.000Z,35.5
2019-06-27T11:43:00.000Z,35.6
2019-06-27T11:48:00.000Z,35.7
2019-06-27T11:53:00.000Z,35.8
2019-06-27T11:58:00.000Z,35.8
2019-06-27T12:03:00.000Z,35.7
2019-06-27T12:08:00.000Z,35.6
2019-06-27T12:13:00.000Z,35.5
2019-06-27T12:18:00.000Z,35.4
2019-06-27T12:23:00.000Z,35.3
2019-06-27T12:28:00.000Z,35.3
2019-06-27T12:33:00.000Z,35.4
2019-06-27T12:39:00.000Z,35.4
2019-06-27T12:44:00.000Z,35.0
2019-06-27T12:49:00.000Z,35.1
2019-06-27T12:54:00.000Z,35.1
2019-06-27T12:59:00.000Z,35.3
2019-06-27T13:04:00.000Z,35.4
2019-06-27T13:09:00.000Z,35.5
2019-06-27T13:14:00.000Z,35.6
2019-06-27T13:19:00.000Z,35.8
2019-06-27T13:24:00.000Z,36.0
2019-06-27T13:29:00.000Z,35.7
2019-06-27T13:34:00.000Z,35.2
2019-06-27T13:39:00.000Z,34.6
2019-06-27T13:44:00.000Z,34.1
2019-06-27T13:49:00.000Z,33.7
2019-06-27T13:54:00.000Z,33.3
2019-06-27T13:59:00.000Z,33.1
2019-06-27T14:04:00.000Z,32.9
2019-06-27T14:09:00.000Z,32.7
2019-06-27T14:14:00.000Z,32.8
2019-06-27T14:20:00.000Z,33.2
2019-06-27T14:25:00.000Z,33.3
2019-06-27T14:30:00.000Z,33.3
2019-06-27T14:35:00.000Z,33.3
2019-06-27T14:40:00.000Z,33.3
2019-06-27T14:45:00.000Z,33.2
2019-06-27T14:50:00.000Z,33.1
2019-06-27T14:55:00.000Z,33.0
2019-06-27T15:00:00.000Z,32.9
2019-06-27T15:05:00.000Z,32.8
2019-06-27T15:10:00.000Z,32.6
2019-06-27T15:15:00.000Z,32.5
2019-06-27T15:20:00.000Z,32.4
2019-06-27T15:25:00.000Z,32.3
2019-06-27T15:30:00.000Z,32.4
2019-06-27T15:35:00.000Z,32.3
2019-06-27T15:40:00.000Z,32.2
2019-06-27T15:45:00.000Z,32.2
2019-06-27T15:50:00.000Z,32.1
2019-06-27T15:55:00.000Z,32.0
2019-06-27T16:00:00.000Z,32.0
2019-06-27T16:05:00.000Z,32.0
2019-06-27T16:11:00.000Z,31.8
2019-06-27T16:16:00.000Z,31.7
2019-06-27T16:21:00.000Z,31.6
2019-06-27T16:26:00.000Z,31.5
2019-06-27T16:31:00.000Z,31.4
2019-06-27T16:36:00.000Z,31.3
2019-06-27T16:41:00.000Z,31.1
2019-06-27T16:46:00.000Z,30.9
2019-06-27T16:51:00.000Z,30.8
2019-06-27T16:56:00.000Z,30.7
2019-06-27T17:01:00.000Z,30.7
2019-06-27T17:06:00.000Z,30.7
2019-06-27T17:11:00.000Z,30.7
2019-06-27T17:16:00.000Z,30.6
2019-06-27T17:21:00.000Z,30.5
2019-06-27T17:26:00.000Z,30.4
2019-06-27T17:31:00.000Z,30.4
2019-06-27T17:36:00.000Z,30.3
2019-06-27T17:41:00.000Z,30.2
2019-06-27T17:46:00.000Z,30.0
2019-06-27T17:52:00.000Z,29.9
2019-06-27T17:57:00.000Z,29.8
2019-06-27T18:02:00.000Z,29.7
2019-06-27T18:07:00.000Z,29.5
2019-06-27T18:12:00.000Z,29.4
2019-06-27T18:17:00.000Z,29.2
2019-06-27T18:22:00.000Z,29.1
2019-06-27T18:27:00.000Z,28.9
2019-06-27T18:32:00.000Z,28.8
2019-06-27T18:37:00.000Z,28.6
2019-06-27T18:42:00.000Z,28.5
2019-06-27T18:47:00.000Z,28.3
2019-06-27T18:52:00.000Z,28.2
2019-06-27T18:57:00.000Z,28.1
2019-06-27T19:02:00.000Z,28.0
2019-06-27T19:07:00.000Z,27.9
2019-06-27T19:12:00.000Z,27.8
2019-06-27T19:17:00.000Z,27.7
2019-06-27T19:22:00.000Z,27.5
2019-06-27T19:27:00.000Z,27.4
2019-06-27T19:32:00.000Z,27.3
2019-06-27T19:37:00.000Z,27.2
2019-06-27T19:43:00.000Z,27.1
2019-06-27T19:48:00.000Z,27.0
2019-06-27T19:53:00.000Z,26.9
2019-06-27T19:58:00.000Z,26.8
2019-06-27T20:03:00.000Z,26.7
2019-06-27T20:08:00.000Z,26.6
2019-06-27T20:13:00.000Z,26.5
2019-06-27T20:18:00.000Z,26.4
2019-06-27T20:23:00.000Z,26.3
2019-06-27T20:28:00.000Z,26.2
2019-06-27T20:33:00.000Z,26.1
2019-06-27T20:38:00.000Z,26.1
2019-06-27T20:43:00.000Z,26.0
2019-06-27T20:48:00.000Z,25.9
2019-06-27T20:53:00.000Z,25.8
2019-06-27T20:58:00.000Z,25.8
2019-06-27T21:03:00.000Z,25.7
2019-06-27T21:08:00.000Z,25.6
2019-06-27T21:13:00.000Z,25.5
2019-06-27T21:18:00.000Z,25.4
2019-06-27T21:23:00.000Z,25.3
2019-06-27T21:28:00.000Z,25.2
2019-06-27T21:33:00.000Z,25.1
2019-06-27T21:38:00.000Z,25.1
2019-06-27T21:44:00.000Z,24.9
2019-06-27T21:49:00.000Z,24.8
2019-06-27T21:54:00.000Z,24.8
2019-06-27T21:59:00.000Z,24.7
2019-06-27T22:04:00.000Z,24.6
2019-06-27T22:09:00.000Z,24.5
2019-06-27T22:14:00.000Z,24.5
2019-06-27T22:19:00.000Z,24.4
2019-06-27T22:24:00.000Z,24.3
2019-06-27T22:29:00.000Z,24.2
2019-06-27T22:34:00.000Z,24.2
2019-06-27T22:39:00.000Z,24.1
2019-06-27T22:44:00.000Z,24.1
2019-06-27T22:49:00.000Z,24.0
2019-06-27T22:54:00.000Z,23.9
2019-06-27T22:59:00.000Z,23.9
2019-06-27T23:04:00.000Z,23.8
2019-06-27T23:09:00.000Z,23.8
2019-06-27T23:14:00.000Z,23.7
2019-06-27T23:19:00.000Z,23.7
2019-06-27T23:24:00.000Z,23.6
2019-06-27T23:30:00.000Z,23.5
2019-06-27T23:35:00.000Z,23.4
2019-06-27T23:40:00.000Z,23.3
2019-06-27T23:45:00.000Z,23.3
2019-06-27T23:50:00.000Z,23.2
2019-06-27T23:55:00.000Z,23.1
